Time;durP1;ratioP1;P1;durP2;ratioP2;P2;SDS_P1;SDS_P2;PMS_P1;PMS_P2;Temp;Humidity;BMP_temperature;BMP_pressure;BME280_temperature;BME280_humidity;BME280_pressure;Samples;Min_cycle;Max_cycle;Signal;HPM_P1;HPM_P2
2022/03/03 00:02:06;;;;;;;14.30;9.37;;;;;;;1.89;100.00;99453.28;5107176;28;20196;-77
2022/03/03 00:04:35;;;;;;;12.43;9.43;;;;;;;1.82;100.00;99446.47;5127200;27;20201;-77
2022/03/03 00:07:10;;;;;;;14.90;9.37;;;;;;;1.78;100.00;99444.84;5137780;27;20249;-78
2022/03/03 00:09:38;;;;;;;13.83;9.20;;;;;;;1.66;100.00;99439.91;5137936;27;20188;-77
2022/03/03 00:12:07;;;;;;;15.73;9.77;;;;;;;1.52;100.00;99444.56;5169904;27;20185;-78
2022/03/03 00:14:36;;;;;;;17.10;10.57;;;;;;;1.43;100.00;99443.88;5164561;27;20243;-78
2022/03/03 00:17:07;;;;;;;13.30;8.83;;;;;;;1.56;100.00;99446.25;5169204;27;20241;-77
2022/03/03 00:19:35;;;;;;;12.40;8.53;;;;;;;1.56;100.00;99448.84;5172720;27;20185;-78
2022/03/03 00:22:04;;;;;;;13.57;8.27;;;;;;;1.61;100.00;99442.63;5172485;27;20208;-78
2022/03/03 00:24:32;;;;;;;16.50;8.13;;;;;;;1.50;100.00;99443.75;5172740;27;20189;-78
2022/03/03 00:27:01;;;;;;;13.77;7.87;;;;;;;1.50;100.00;99431.56;5176821;27;20191;-78
2022/03/03 00:29:29;;;;;;;13.60;8.53;;;;;;;1.56;100.00;99433.19;5167959;27;20192;-78
2022/03/03 00:32:00;;;;;;;11.97;8.03;;;;;;;1.39;100.00;99438.78;5166886;27;20189;-78
2022/03/03 00:34:30;;;;;;;12.80;8.57;;;;;;;1.31;100.00;99435.50;5169591;27;20249;-78
2022/03/03 00:36:59;;;;;;;13.47;8.60;;;;;;;1.37;100.00;99431.00;5137347;27;20214;-78
2022/03/03 00:39:28;;;;;;;13.20;9.27;;;;;;;1.24;100.00;99434.75;5172084;27;20276;-78
2022/03/03 00:41:56;;;;;;;13.87;8.73;;;;;;;1.34;100.00;99435.41;5166663;27;20751;-78
2022/03/03 00:44:25;;;;;;;12.57;8.47;;;;;;;1.21;100.00;99428.75;5176403;27;20652;-78
2022/03/03 00:46:53;;;;;;;11.77;7.97;;;;;;;1.06;100.00;99428.22;5170464;27;20268;-78
2022/03/03 00:49:21;;;;;;;12.87;8.70;;;;;;;1.19;100.00;99434.00;5070148;28;20228;-77
2022/03/03 00:51:51;;;;;;;12.50;8.13;;;;;;;1.25;100.00;99431.25;5062512;28;20406;-78
2022/03/03 00:54:22;;;;;;;11.67;8.47;;;;;;;1.12;100.00;99425.44;5066125;28;20217;-78
2022/03/03 00:56:52;;;;;;;13.57;8.40;;;;;;;1.23;100.00;99429.56;5065237;28;20199;-78
2022/03/03 00:59:21;;;;;;;12.80;8.10;;;;;;;1.34;100.00;99435.41;5068317;28;20196;-78
2022/03/03 01:01:49;;;;;;;11.60;8.13;;;;;;;1.25;100.00;99431.25;5060552;28;20200;-78
2022/03/03 01:04:19;;;;;;;13.27;8.57;;;;;;;1.18;100.00;99432.31;5063116;28;20208;-77
2022/03/03 01:06:47;;;;;;;12.67;7.97;;;;;;;1.19;100.00;99426.19;5087878;27;20204;-77
2022/03/03 01:09:17;;;;;;;11.67;8.10;;;;;;;1.25;100.00;99419.94;5175940;27;20821;-77
2022/03/03 01:11:46;;;;;;;11.93;7.90;;;;;;;1.12;100.00;99411.56;5172617;27;20196;-78
2022/03/03 01:14:21;;;;;;;13.37;8.20;;;;;;;1.02;100.00;99416.09;5119323;27;20185;-78
2022/03/03 01:16:50;;;;;;;12.83;8.43;;;;;;;0.96;100.00;99417.97;5120160;27;20189;-78
2022/03/03 01:19:23;;;;;;;13.53;9.33;;;;;;;1.03;100.00;99422.19;5164569;27;20201;-78
2022/03/03 01:21:52;;;;;;;13.73;7.97;;;;;;;0.95;100.00;99413.66;5093471;28;20579;-78
2022/03/03 01:24:24;;;;;;;13.37;8.23;;;;;;;1.04;100.00;99411.72;5086719;28;20199;-78
2022/03/03 01:26:53;;;;;;;11.93;8.40;;;;;;;1.06;100.00;99407.34;5090732;28;20222;-78
2022/03/03 01:29:22;;;;;;;13.60;8.60;;;;;;;1.00;100.00;99401.41;5095064;28;20215;-78
2022/03/03 01:31:50;;;;;;;12.07;8.50;;;;;;;0.95;100.00;99404.06;5095338;28;20203;-78
2022/03/03 01:34:19;;;;;;;11.03;7.90;;;;;;;1.05;100.00;99405.59;5093013;28;20192;-78
2022/03/03 01:36:48;;;;;;;11.20;8.37;;;;;;;0.95;100.00;99398.00;5098587;28;20195;-78
2022/03/03 01:39:16;;;;;;;10.70;8.20;;;;;;;0.98;100.00;99403.19;5098634;28;20196;-78
2022/03/03 01:41:46;;;;;;;14.50;8.57;;;;;;;0.82;100.00;99400.88;5089259;28;20223;-78
2022/03/03 01:44:15;;;;;;;12.70;8.27;;;;;;;0.86;100.00;99388.63;5095137;28;20230;-78
2022/03/03 01:46:50;;;;;;;13.37;9.00;;;;;;;0.96;100.00;99389.28;5089025;28;20219;-78
2022/03/03 01:49:19;;;;;;;13.40;8.60;;;;;;;0.76;100.00;99400.13;5086792;28;20226;-78
2022/03/03 01:51:48;;;;;;;11.37;8.37;;;;;;;0.77;100.00;99400.13;5071731;28;20204;-78
2022/03/03 01:54:18;;;;;;;13.17;8.07;;;;;;;0.72;100.00;99395.88;5092165;28;20204;-78
2022/03/03 01:56:49;;;;;;;12.47;8.57;;;;;;;0.82;100.00;99397.41;5092395;28;20203;-78
2022/03/03 01:59:19;;;;;;;10.90;7.73;;;;;;;0.77;100.00;99396.63;5124267;27;20197;-79
2022/03/03 02:01:49;;;;;;;11.07;8.17;;;;;;;0.77;100.00;99386.22;5176094;27;20200;-78
2022/03/03 02:04:18;;;;;;;11.07;7.97;;;;;;;0.64;100.00;99392.56;5170270;27;20284;-78
2022/03/03 02:06:47;;;;;;;11.57;7.87;;;;;;;0.54;100.00;99387.53;5171710;27;20193;-78
2022/03/03 02:09:17;;;;;;;13.33;8.30;;;;;;;0.41;100.00;99383.47;5166137;27;20301;-78
2022/03/03 02:11:46;;;;;;;11.67;8.03;;;;;;;0.42;100.00;99386.94;5169665;27;20193;-78
2022/03/03 02:14:18;;;;;;;12.23;8.40;;;;;;;0.41;100.00;99382.63;5175003;27;20212;-78
2022/03/03 02:16:47;;;;;;;13.23;8.97;;;;;;;0.31;100.00;99373.25;5168162;27;20192;-78
2022/03/03 02:19:17;;;;;;;13.13;8.90;;;;;;;0.32;100.00;99374.97;5165387;27;20228;-78
2022/03/03 02:21:49;;;;;;;13.73;8.70;;;;;;;0.34;100.00;99375.81;5179134;27;20408;-78
2022/03/03 02:24:20;;;;;;;14.53;8.90;;;;;;;0.42;100.00;99381.72;5173919;27;20256;-78
2022/03/03 02:26:51;;;;;;;12.73;8.60;;;;;;;0.37;100.00;99376.59;5124054;27;20242;-78
2022/03/03 02:29:19;;;;;;;15.50;9.47;;;;;;;0.38;100.00;99380.91;5168399;27;20216;-78
2022/03/03 02:31:48;;;;;;;15.27;8.77;;;;;;;0.27;100.00;99382.88;5167182;27;20193;-78
2022/03/03 02:34:17;;;;;;;17.77;9.20;;;;;;;0.04;100.00;99383.31;5169218;27;20205;-78
2022/03/03 02:36:47;;;;;;;13.33;8.80;;;;;;;-0.05;100.00;99386.06;5169415;27;20185;-78
2022/03/03 02:39:15;;;;;;;12.90;8.67;;;;;;;-0.15;100.00;99384.50;5176034;27;20193;-78
2022/03/03 02:41:43;;;;;;;12.97;8.43;;;;;;;-0.04;100.00;99378.22;5171541;27;20713;-78
2022/03/03 02:44:12;;;;;;;11.67;8.37;;;;;;;-0.12;100.00;99387.91;5170265;27;20185;-78
2022/03/03 02:46:42;;;;;;;13.13;7.63;;;;;;;-0.36;100.00;99377.91;5175694;27;20193;-78
2022/03/03 02:49:10;;;;;;;15.03;8.43;;;;;;;-0.25;100.00;99373.41;5166168;27;20217;-78
2022/03/03 02:51:39;;;;;;;13.33;8.90;;;;;;;-0.15;100.00;99371.50;5168755;27;20188;-78
2022/03/03 02:54:09;;;;;;;14.90;9.17;;;;;;;-0.18;100.00;99375.00;5178586;27;20181;-78
2022/03/03 02:57:53;;;;;;;15.23;9.63;;;;;;;-0.31;100.00;99368.28;5178558;27;20211;-78
2022/03/03 02:59:26;;;;;;;13.87;8.87;;;;;;;-0.15;100.00;99361.94;5179924;27;20193;-77
2022/03/03 03:01:55;;;;;;;17.57;9.50;;;;;;;-0.27;100.00;99359.56;5175675;27;20241;-78
2022/03/03 03:04:23;;;;;;;13.63;8.63;;;;;;;-0.28;100.00;99359.59;5169317;27;20212;-78
2022/03/03 03:06:52;;;;;;;13.93;9.10;;;;;;;-0.37;100.00;99360.59;5110085;28;20310;-78
2022/03/03 03:09:22;;;;;;;12.83;8.70;;;;;;;-0.23;100.00;99357.75;5106178;28;20242;-78
2022/03/03 03:11:50;;;;;;;14.53;9.53;;;;;;;-0.39;100.00;99354.53;5101572;28;20188;-78
2022/03/03 03:14:19;;;;;;;12.27;8.93;;;;;;;-0.38;100.00;99362.34;5105688;28;20298;-78
2022/03/03 03:16:50;;;;;;;13.97;8.53;;;;;;;-0.28;100.00;99357.84;5029288;28;20190;-78
2022/03/03 03:19:22;;;;;;;12.83;8.27;;;;;;;-0.22;100.00;99355.13;5031548;28;20197;-78
2022/03/03 03:21:51;;;;;;;15.83;8.93;;;;;;;-0.16;100.00;99356.75;5010292;28;20669;-78
2022/03/03 03:24:21;;;;;;;12.70;9.00;;;;;;;-0.09;100.00;99350.56;5017058;28;20192;-78
2022/03/03 03:26:49;;;;;;;14.93;9.57;;;;;;;-0.16;100.00;99343.75;5041762;28;20733;-79
2022/03/03 03:29:18;;;;;;;17.97;9.40;;;;;;;-0.36;100.00;99333.69;5039626;28;20217;-78
2022/03/03 03:31:46;;;;;;;13.37;9.17;;;;;;;-0.36;100.00;99334.53;5049210;28;20201;-78
2022/03/03 03:34:14;;;;;;;14.10;9.40;;;;;;;-0.40;100.00;99330.25;5042791;28;20201;-78
2022/03/03 03:36:43;;;;;;;14.07;8.30;;;;;;;-0.38;100.00;99325.91;5043695;28;20204;-78
2022/03/03 03:39:11;;;;;;;13.17;8.93;;;;;;;-0.42;100.00;99319.03;5042802;28;20193;-78
2022/03/03 03:41:43;;;;;;;14.13;8.83;;;;;;;-0.28;100.00;99321.41;5082388;28;20219;-77
2022/03/03 03:44:11;;;;;;;14.53;9.40;;;;;;;-0.21;100.00;99315.19;5105042;28;20205;-78
2022/03/03 03:46:39;;;;;;;14.67;9.30;;;;;;;-0.33;100.00;99328.44;5106534;28;20195;-78
2022/03/03 03:49:08;;;;;;;15.07;9.43;;;;;;;-0.40;100.00;99319.00;5105814;28;20191;-78
2022/03/03 03:51:36;;;;;;;15.47;9.77;;;;;;;-0.44;100.00;99312.16;5104238;28;20207;-78
2022/03/03 03:54:05;;;;;;;14.73;8.97;;;;;;;-0.46;100.00;99309.56;5170405;27;20185;-78
2022/03/03 03:56:33;;;;;;;16.27;9.30;;;;;;;-0.51;100.00;99310.53;5170950;27;20241;-78
2022/03/03 03:59:03;;;;;;;13.30;8.97;;;;;;;-0.44;100.00;99315.59;5173289;27;20203;-78
2022/03/03 04:01:32;;;;;;;14.53;9.50;;;;;;;-0.44;100.00;99314.75;5168241;27;20197;-78
2022/03/03 04:04:00;;;;;;;14.23;9.57;;;;;;;-0.34;100.00;99326.72;5171888;27;20234;-78
2022/03/03 04:06:30;;;;;;;15.30;9.60;;;;;;;-0.60;100.00;99317.59;5174135;27;20196;-78
2022/03/03 04:08:58;;;;;;;14.33;9.87;;;;;;;-0.52;100.00;99319.22;5171586;27;20231;-78
2022/03/03 04:11:27;;;;;;;12.40;8.67;;;;;;;-0.57;100.00;99326.25;5176783;27;20209;-78
2022/03/03 04:13:56;;;;;;;15.10;10.00;;;;;;;-0.60;100.00;99322.78;5176796;27;20181;-78
2022/03/03 04:16:27;;;;;;;13.83;9.60;;;;;;;-0.70;100.00;99323.81;5169856;27;20197;-78
2022/03/03 04:18:55;;;;;;;15.40;9.80;;;;;;;-0.66;100.00;99319.44;5176209;27;20185;-78
2022/03/03 04:21:24;;;;;;;13.63;9.53;;;;;;;-0.74;100.00;99314.38;5175547;27;20227;-77
2022/03/03 04:23:53;;;;;;;11.93;9.30;;;;;;;-0.72;100.00;99319.53;5165932;27;20204;-77
2022/03/03 04:26:22;;;;;;;14.23;9.40;;;;;;;-0.94;100.00;99316.41;5173058;27;20201;-78
2022/03/03 04:28:51;;;;;;;14.37;9.47;;;;;;;-0.83;100.00;99309.31;5169478;27;20353;-78
2022/03/03 04:31:19;;;;;;;14.27;9.90;;;;;;;-0.75;100.00;99306.59;5170471;27;20224;-78
2022/03/03 04:33:49;;;;;;;14.07;9.47;;;;;;;-0.79;100.00;99295.38;5160730;27;20193;-77
2022/03/03 04:36:18;;;;;;;17.30;9.80;;;;;;;-0.65;100.00;99297.75;5168886;27;20199;-78
2022/03/03 04:38:50;;;;;;;16.90;10.30;;;;;;;-0.76;100.00;99302.28;5081686;28;20253;-78
2022/03/03 04:41:20;;;;;;;14.70;10.27;;;;;;;-0.77;100.00;99306.63;5088579;28;20250;-78
2022/03/03 04:43:49;;;;;;;16.17;10.43;;;;;;;-0.78;100.00;99306.63;5086891;28;20670;-78
2022/03/03 04:46:19;;;;;;;17.33;11.10;;;;;;;-0.77;100.00;99311.81;5042046;28;20188;-78
2022/03/03 04:48:50;;;;;;;17.17;9.87;;;;;;;-0.83;100.00;99305.84;5081246;28;20207;-78
2022/03/03 04:51:18;;;;;;;15.63;9.57;;;;;;;-0.87;100.00;99303.31;5082432;28;20223;-78
2022/03/03 04:53:47;;;;;;;16.10;10.10;;;;;;;-0.93;100.00;99306.00;5007918;28;20307;-77
2022/03/03 04:56:16;;;;;;;15.23;9.63;;;;;;;-1.04;100.00;99301.84;5021075;28;20195;-78
2022/03/03 04:58:46;;;;;;;16.97;11.43;;;;;;;-1.07;100.00;99294.94;5086785;28;20187;-78
2022/03/03 05:01:14;;;;;;;16.90;11.53;;;;;;;-1.14;100.00;99305.47;5090230;28;20191;-78
2022/03/03 05:03:43;;;;;;;16.37;11.10;;;;;;;-1.09;100.00;99301.03;5086193;28;20231;-78
2022/03/03 05:06:13;;;;;;;19.87;11.20;;;;;;;-1.22;100.00;99302.97;5085053;28;20244;-78
2022/03/03 05:08:42;;;;;;;18.63;11.10;;;;;;;-1.23;100.00;99306.44;5085963;28;20727;-78
2022/03/03 05:11:11;;;;;;;20.50;10.67;;;;;;;-1.35;100.00;99307.50;5090069;27;20210;-78
2022/03/03 05:13:39;;;;;;;17.23;10.70;;;;;;;-1.42;100.00;99305.84;5152701;27;20198;-77
2022/03/03 05:16:09;;;;;;;18.13;11.03;;;;;;;-1.25;100.00;99301.28;5153372;27;20196;-77
2022/03/03 05:18:38;;;;;;;18.17;11.00;;;;;;;-1.26;100.00;99306.47;5154853;27;20185;-77
2022/03/03 05:21:06;;;;;;;16.37;11.03;;;;;;;-1.26;100.00;99304.72;5148567;27;20192;-78
2022/03/03 05:23:36;;;;;;;14.33;10.00;;;;;;;-1.23;100.00;99309.91;5146440;27;20640;-77
2022/03/03 05:26:05;;;;;;;18.13;10.77;;;;;;;-1.22;100.00;99302.97;5155648;27;20194;-78
2022/03/03 05:28:33;;;;;;;16.07;10.83;;;;;;;-1.21;100.00;99302.94;5153255;27;20186;-78
2022/03/03 05:31:02;;;;;;;15.93;10.53;;;;;;;-1.12;100.00;99303.69;5125518;28;20214;-78
2022/03/03 05:33:31;;;;;;;15.77;10.90;;;;;;;-1.21;100.00;99291.69;5126486;28;20198;-77
2022/03/03 05:36:03;;;;;;;17.30;11.57;;;;;;;-1.32;100.00;99297.03;5126159;28;20198;-78
2022/03/03 05:38:36;;;;;;;19.63;11.57;;;;;;;-1.12;100.00;99293.31;5127463;28;20300;-78
2022/03/03 05:41:06;;;;;;;17.33;11.20;;;;;;;-1.19;100.00;99301.19;5129264;28;20285;-79
2022/03/03 05:43:36;;;;;;;17.93;11.93;;;;;;;-1.01;100.00;99296.59;5128918;28;20222;-78
2022/03/03 05:46:08;;;;;;;16.23;10.97;;;;;;;-0.97;100.00;99304.31;5133317;28;20187;-78
2022/03/03 05:48:40;;;;;;;17.33;10.93;;;;;;;-0.98;100.00;99302.59;5105977;27;20220;-78
2022/03/03 05:51:10;;;;;;;17.10;11.27;;;;;;;-0.87;100.00;99308.50;5149403;27;20213;-78
2022/03/03 05:53:40;;;;;;;17.97;11.87;;;;;;;-0.90;100.00;99310.28;5150826;27;20198;-78
2022/03/03 05:56:10;;;;;;;19.30;11.17;;;;;;;-1.08;100.00;99316.59;5150099;27;20186;-77
2022/03/03 05:58:42;;;;;;;19.43;11.07;;;;;;;-1.06;100.00;99319.19;5146780;27;20190;-78
2022/03/03 06:01:12;;;;;;;17.17;11.07;;;;;;;-1.10;100.00;99322.72;5145108;27;20204;-78
2022/03/03 06:03:43;;;;;;;17.03;11.03;;;;;;;-1.11;100.00;99315.81;5152024;27;20206;-78
2022/03/03 06:06:21;;;;;;;19.27;11.83;;;;;;;-0.94;100.00;99312.09;5152725;27;20194;-78
2022/03/03 06:08:59;;;;;;;17.97;11.87;;;;;;;-0.88;100.00;99308.50;5153346;27;20246;-78
2022/03/03 06:11:29;;;;;;;15.90;11.63;;;;;;;-0.91;100.00;99305.97;5157853;27;20209;-78
2022/03/03 06:14:05;;;;;;;21.10;12.10;;;;;;;-1.05;100.00;99306.19;5155572;27;20198;-78
2022/03/03 06:16:35;;;;;;;16.53;10.63;;;;;;;-1.00;100.00;99298.31;5154662;27;20197;-78
2022/03/03 06:19:05;;;;;;;17.37;11.13;;;;;;;-1.02;100.00;99300.94;5151685;27;20201;-77
2022/03/03 06:21:37;;;;;;;22.53;11.67;;;;;;;-1.00;100.00;99299.16;5149166;27;20242;-78
2022/03/03 06:24:07;;;;;;;19.43;11.57;;;;;;;-0.88;100.00;99301.56;5151614;27;20192;-78
2022/03/03 06:26:36;;;;;;;15.63;11.43;;;;;;;-0.89;100.00;99305.06;5157737;27;20273;-78
2022/03/03 06:29:08;;;;;;;20.77;12.70;;;;;;;-0.89;100.00;99305.06;5157684;27;20190;-78
2022/03/03 06:31:36;;;;;;;19.80;12.00;;;;;;;-0.89;100.00;99301.59;5157348;27;20225;-78
2022/03/03 06:34:07;;;;;;;19.93;11.80;;;;;;;-0.79;100.00;99303.16;5155865;27;20212;-78
2022/03/03 06:36:39;;;;;;;19.37;11.93;;;;;;;-0.74;100.00;99301.38;5151928;27;20200;-78
2022/03/03 06:39:10;;;;;;;16.97;12.03;;;;;;;-0.65;100.00;99301.22;5116802;27;20220;-78
2022/03/03 06:41:40;;;;;;;19.70;12.27;;;;;;;-0.80;100.00;99298.84;5134315;27;20222;-79
2022/03/03 06:44:12;;;;;;;17.07;11.70;;;;;;;-0.70;100.00;99316.03;5123745;27;20304;-78
2022/03/03 06:46:41;;;;;;;20.13;12.50;;;;;;;-0.75;100.00;99309.19;5091103;28;20195;-78
2022/03/03 06:49:12;;;;;;;20.90;13.03;;;;;;;-0.67;100.00;99317.75;5088355;28;20208;-78
2022/03/03 06:51:43;;;;;;;21.23;11.90;;;;;;;-0.60;100.00;99319.34;5090677;28;20468;-78
2022/03/03 06:54:15;;;;;;;19.13;12.53;;;;;;;-0.53;100.00;99309.69;5055849;28;20192;-78
2022/03/03 06:56:47;;;;;;;18.27;12.37;;;;;;;-0.43;100.00;99306.91;5087080;28;20208;-78
2022/03/03 06:59:21;;;;;;;22.60;12.23;;;;;;;-0.52;100.00;99303.59;4992828;28;20274;-78
2022/03/03 07:01:50;;;;;;;20.70;12.00;;;;;;;-0.44;100.00;99312.16;4988096;28;20198;-78
2022/03/03 07:04:21;;;;;;;22.43;13.33;;;;;;;-0.41;100.00;99317.28;4989367;28;20278;-78
2022/03/03 07:06:53;;;;;;;22.73;12.90;;;;;;;-0.37;100.00;99305.97;4960364;28;20221;-78
2022/03/03 07:09:24;;;;;;;22.73;13.50;;;;;;;-0.15;100.00;99303.81;4993548;28;20269;-78
2022/03/03 07:11:53;;;;;;;22.13;12.90;;;;;;;0.01;100.00;99297.44;5032979;28;20224;-78
2022/03/03 07:14:21;;;;;;;18.10;12.53;;;;;;;-0.03;100.00;99296.63;5045207;28;20205;-78
2022/03/03 07:17:01;;;;;;;21.67;13.17;;;;;;;0.12;100.00;99307.66;5005848;28;20205;-78
2022/03/03 07:19:50;;;;;;;20.70;12.53;;;;;;;0.29;100.00;99292.56;5003115;28;20214;-78
2022/03/03 07:22:27;;;;;;;19.27;12.43;;;;;;;0.36;100.00;99301.06;5011446;28;20241;-78
2022/03/03 07:25:04;;;;;;;19.60;13.23;;;;;;;0.17;100.00;99308.41;5064873;28;20191;-78
2022/03/03 07:27:35;;;;;;;19.10;12.80;;;;;;;0.10;100.00;99301.63;5039605;28;20192;-78
2022/03/03 07:30:07;;;;;;;21.30;13.30;;;;;;;0.25;100.00;99319.53;5068548;28;20199;-78
2022/03/03 07:32:38;;;;;;;24.00;13.33;;;;;;;0.36;100.00;99322.78;5066770;28;20234;-78
2022/03/03 07:35:09;;;;;;;21.47;13.13;;;;;;;0.52;100.00;99312.91;5060300;28;20205;-78
2022/03/03 07:37:42;;;;;;;20.87;13.70;;;;;;;0.47;100.00;99315.59;5066559;28;20243;-79
2022/03/03 07:40:12;;;;;;;18.80;13.10;;;;;;;0.39;100.00;99314.91;5067342;28;20271;-77
2022/03/03 07:42:41;;;;;;;18.57;12.30;;;;;;;0.34;100.00;99316.75;5126127;27;20246;-78
2022/03/03 07:45:10;;;;;;;18.67;12.87;;;;;;;0.43;100.00;99319.16;5102127;27;20201;-78
2022/03/03 07:47:39;;;;;;;19.10;12.77;;;;;;;0.39;100.00;99322.72;5131653;27;20194;-79
2022/03/03 07:50:10;;;;;;;19.17;12.37;;;;;;;0.82;100.00;99325.28;5130904;27;20706;-79
2022/03/03 07:52:39;;;;;;;18.47;13.13;;;;;;;0.77;100.00;99316.72;5135466;27;20218;-78
2022/03/03 07:55:08;;;;;;;17.97;12.53;;;;;;;0.99;100.00;99322.31;5134054;27;20197;-78
2022/03/03 07:57:43;;;;;;;19.67;13.00;;;;;;;0.81;100.00;99328.78;5129914;27;20187;-78
2022/03/03 08:00:14;;;;;;;17.90;12.47;;;;;;;0.94;100.00;99323.28;5127279;27;20194;-78
2022/03/03 08:02:43;;;;;;;20.87;13.47;;;;;;;1.15;100.00;99314.97;5135092;27;20206;-79
2022/03/03 08:05:12;;;;;;;19.53;12.83;;;;;;;1.23;100.00;99314.78;5134359;27;20186;-79
2022/03/03 08:07:43;;;;;;;17.57;12.77;;;;;;;1.41;100.00;99314.34;5131796;27;20248;-78
2022/03/03 08:10:16;;;;;;;21.53;13.77;;;;;;;1.42;100.00;99316.91;5131327;27;20240;-78
2022/03/03 08:12:55;;;;;;;22.73;14.43;;;;;;;1.57;100.00;99323.53;5127850;27;20301;-78
2022/03/03 08:15:23;;;;;;;21.77;13.90;;;;;;;1.72;100.00;99325.72;5128459;27;20709;-78
2022/03/03 08:17:52;;;;;;;21.63;13.97;;;;;;;1.88;100.00;99325.34;5130779;27;20197;-78
2022/03/03 08:20:21;;;;;;;20.27;13.30;;;;;;;2.07;100.00;99320.50;5129137;27;20196;-78
2022/03/03 08:22:50;;;;;;;23.53;14.67;;;;;;;2.28;100.00;99318.16;5128053;27;20283;-78
2022/03/03 08:25:19;;;;;;;23.90;13.97;;;;;;;2.50;100.00;99323.59;5128906;27;20189;-79
2022/03/03 08:27:48;;;;;;;19.23;13.83;;;;;;;2.61;100.00;99322.47;5130357;27;20195;-78
2022/03/03 08:30:17;;;;;;;20.87;14.27;;;;;;;2.94;100.00;99318.00;5130543;27;20269;-78
2022/03/03 08:32:52;;;;;;;21.97;14.33;;;;;;;3.18;100.00;99317.22;5120876;27;20232;-78
2022/03/03 08:35:25;;;;;;;20.53;13.83;;;;;;;3.24;100.00;99308.31;5123985;27;20196;-79
2022/03/03 08:38:03;;;;;;;21.40;14.37;;;;;;;3.44;100.00;99306.75;5130639;27;20196;-79
2022/03/03 08:40:32;;;;;;;20.50;13.13;;;;;;;3.39;100.00;99303.47;5127356;27;20233;-78
2022/03/03 08:43:06;;;;;;;18.27;12.47;;;;;;;3.62;100.00;99297.44;5129050;27;20693;-79
2022/03/03 08:45:36;;;;;;;20.87;13.17;;;;;;;3.43;100.00;99288.50;5131468;27;20269;-78
2022/03/03 08:48:07;;;;;;;18.90;13.07;;;;;;;3.48;100.00;99293.59;5130181;27;20209;-78
2022/03/03 08:50:39;;;;;;;17.60;12.50;;;;;;;3.66;100.00;99285.09;5125879;27;20186;-78
2022/03/03 08:53:08;;;;;;;21.10;12.93;;;;;;;3.92;100.00;99279.81;5131032;27;20691;-78
2022/03/03 08:55:39;;;;;;;18.93;12.47;;;;;;;4.23;100.00;99273.47;5124450;27;20209;-78
2022/03/03 08:58:10;;;;;;;16.40;12.10;;;;;;;4.52;100.00;99272.41;5122083;27;20209;-77
2022/03/03 09:00:38;;;;;;;16.33;11.70;;;;;;;4.79;100.00;99262.63;5130034;27;20205;-78
2022/03/03 09:03:07;;;;;;;18.53;12.47;;;;;;;4.89;100.00;99261.34;5124327;27;20194;-78
2022/03/03 09:05:35;;;;;;;15.50;10.77;;;;;;;5.09;100.00;99265.81;5134199;27;20186;-79
2022/03/03 09:08:04;;;;;;;18.80;12.20;;;;;;;5.10;100.00;99262.28;5127495;27;20206;-79
2022/03/03 09:10:33;;;;;;;14.53;11.20;;;;;;;5.03;100.00;99258.22;5095942;28;20190;-79
2022/03/03 09:13:01;;;;;;;15.70;10.70;;;;;;;5.03;100.00;99256.44;5126445;28;20210;-79
2022/03/03 09:15:32;;;;;;;15.63;10.43;;;;;;;5.32;100.00;99250.00;5134201;28;20194;-79
2022/03/03 09:18:00;;;;;;;16.43;11.00;;;;;;;5.28;100.00;99247.53;5126214;28;20206;-79
2022/03/03 09:20:32;;;;;;;16.17;11.13;;;;;;;5.51;100.00;99254.50;5127647;28;20197;-79
2022/03/03 09:23:01;;;;;;;15.37;11.03;;;;;;;5.83;100.00;99253.13;5122566;28;20195;-79
2022/03/03 09:25:30;;;;;;;15.10;10.83;;;;;;;6.21;100.00;99252.31;5127516;28;20194;-79
2022/03/03 09:27:58;;;;;;;15.13;10.63;;;;;;;6.30;100.00;99244.00;5121484;28;20198;-79
2022/03/03 09:30:28;;;;;;;16.20;11.00;;;;;;;6.46;100.00;99248.56;5128461;28;20195;-79
2022/03/03 09:32:58;;;;;;;15.47;10.23;;;;;;;6.86;99.25;99253.69;5128326;28;20351;-80
2022/03/03 09:35:28;;;;;;;16.60;10.87;;;;;;;7.05;93.61;99251.03;5124499;28;20191;-79
2022/03/03 09:37:56;;;;;;;19.53;12.77;;;;;;;7.35;91.29;99253.13;5123705;28;20202;-79
2022/03/03 09:40:25;;;;;;;15.57;11.03;;;;;;;7.29;88.57;99256.03;5126301;27;20218;-79
2022/03/03 09:42:59;;;;;;;14.23;10.07;;;;;;;7.55;80.22;99252.13;5125953;27;20197;-79
2022/03/03 09:45:28;;;;;;;19.20;10.40;;;;;;;7.40;79.27;99249.31;5135547;27;20186;-79
2022/03/03 09:48:00;;;;;;;16.20;10.67;;;;;;;7.96;77.27;99244.72;5131435;27;20263;-79
2022/03/03 09:50:28;;;;;;;15.80;10.23;;;;;;;8.17;72.14;99250.66;5137347;27;20633;-79
2022/03/03 09:52:57;;;;;;;15.50;10.40;;;;;;;8.49;70.05;99247.22;5099214;27;20301;-78
2022/03/03 09:55:30;;;;;;;14.43;10.50;;;;;;;8.68;69.13;99243.53;5126975;27;20194;-79
2022/03/03 09:57:59;;;;;;;16.50;10.07;;;;;;;8.87;68.75;99242.44;5129236;27;20197;-79
2022/03/03 10:00:33;;;;;;;15.00;10.77;;;;;;;8.60;70.00;99238.69;5132870;27;20214;-79
2022/03/03 10:03:08;;;;;;;15.10;10.00;;;;;;;8.86;71.49;99230.16;5130539;27;20198;-80
2022/03/03 10:05:39;;;;;;;15.63;10.77;;;;;;;8.99;72.00;99240.06;5133322;27;20197;-79
2022/03/03 10:08:09;;;;;;;14.03;9.87;;;;;;;9.06;70.93;99239.63;5124580;27;20205;-79
2022/03/03 10:10:40;;;;;;;14.13;10.00;;;;;;;9.26;67.96;99227.91;5051540;28;20193;-79
2022/03/03 10:13:10;;;;;;;14.20;10.00;;;;;;;8.95;67.96;99227.97;5049767;28;20216;-79
2022/03/03 10:15:41;;;;;;;15.37;10.47;;;;;;;9.25;71.26;99226.22;5054462;28;20189;-79
2022/03/03 10:18:16;;;;;;;14.23;9.77;;;;;;;9.58;62.88;99239.28;5054051;28;20280;-79
2022/03/03 10:20:51;;;;;;;14.13;9.57;;;;;;;9.62;60.79;99232.84;5050478;28;20185;-79
2022/03/03 10:23:24;;;;;;;12.90;9.17;;;;;;;10.00;59.35;99227.91;5049898;28;20660;-79
2022/03/03 10:25:54;;;;;;;12.80;9.30;;;;;;;10.26;58.79;99230.81;5051400;28;20208;-79
2022/03/03 10:28:25;;;;;;;13.17;9.50;;;;;;;10.40;54.45;99224.66;5074051;27;20198;-79
2022/03/03 10:30:57;;;;;;;12.57;9.17;;;;;;;10.41;53.41;99223.72;5131696;27;20203;-79
2022/03/03 10:33:30;;;;;;;13.67;9.53;;;;;;;10.43;54.48;99216.53;5127999;27;20729;-79
2022/03/03 10:36:06;;;;;;;16.37;9.70;;;;;;;10.81;50.51;99222.06;5128961;27;20198;-79
2022/03/03 10:38:35;;;;;;;12.77;8.70;;;;;;;10.78;48.41;99217.78;5125153;27;20202;-79
2022/03/03 10:41:04;;;;;;;12.40;9.00;;;;;;;11.11;47.77;99225.38;5126602;27;20222;-80
2022/03/03 10:43:48;;;;;;;11.00;9.03;;;;;;;11.52;48.65;99216.50;5128739;27;20632;-79
2022/03/03 10:46:19;;;;;;;12.63;8.53;;;;;;;10.70;47.49;99217.44;5125911;27;20201;-80
2022/03/03 10:48:49;;;;;;;12.40;9.23;;;;;;;11.33;46.27;99222.19;5128759;27;20199;-79
2022/03/03 10:51:19;;;;;;;11.23;8.47;;;;;;;11.25;44.82;99231.56;5136871;27;20190;-80
2022/03/03 10:53:48;;;;;;;11.10;8.73;;;;;;;11.60;44.32;99216.00;5127286;27;20307;-79
2022/03/03 10:56:19;;;;;;;12.97;8.43;;;;;;;12.00;42.99;99217.66;5125803;27;20190;-79
2022/03/03 10:58:51;;;;;;;11.87;8.87;;;;;;;11.73;44.18;99214.19;5128436;27;20186;-79
2022/03/03 11:01:22;;;;;;;12.70;9.20;;;;;;;12.00;44.39;99214.16;5129059;27;20190;-79
2022/03/03 11:03:54;;;;;;;10.30;8.27;;;;;;;12.18;41.80;99214.69;5132716;27;20198;-80
2022/03/03 11:06:25;;;;;;;13.60;9.23;;;;;;;12.49;40.30;99210.72;5132669;27;20198;-79
2022/03/03 11:08:55;;;;;;;12.30;9.30;;;;;;;12.72;39.58;99203.75;5132028;27;20216;-80
2022/03/03 11:11:26;;;;;;;11.93;9.10;;;;;;;12.67;40.60;99212.06;5131018;27;20189;-80
2022/03/03 11:13:55;;;;;;;26.00;10.67;;;;;;;12.42;42.61;99214.75;5049668;27;20226;-79
2022/03/03 11:16:26;;;;;;;13.30;9.43;;;;;;;12.50;41.91;99207.94;5150480;27;20201;-79
2022/03/03 11:19:00;;;;;;;12.10;9.57;;;;;;;12.58;42.41;99192.31;5146621;27;20718;-79
2022/03/03 11:21:29;;;;;;;14.70;9.90;;;;;;;12.57;43.24;99203.06;5154368;27;20197;-79
2022/03/03 11:24:01;;;;;;;12.23;10.10;;;;;;;12.12;44.36;99208.00;5150868;27;20198;-80
2022/03/03 11:26:34;;;;;;;11.73;10.10;;;;;;;12.57;44.09;99203.06;5149299;27;20206;-80
2022/03/03 11:29:12;;;;;;;13.73;10.10;;;;;;;12.50;44.76;99202.63;5087730;28;20215;-80
2022/03/03 11:31:43;;;;;;;16.10;10.60;;;;;;;12.30;43.66;99209.34;5090512;28;20187;-79
2022/03/03 11:34:39;;;;;;;14.47;10.83;;;;;;;12.96;43.99;99203.78;5086382;28;20735;-80